Time;durP1;ratioP1;P1;durP2;ratioP2;P2;SDS_P1;SDS_P2;PMS_P1;PMS_P2;Temp;Humidity;BMP_temperature;BMP_pressure;BME280_temperature;BME280_humidity;BME280_pressure;Samples;Min_cycle;Max_cycle;Signal;HPM_P1;HPM_P2
2022/06/08 00:00:07;;;;;;;7.28;4.30;;;;;;;;;;5053128;28;20029;-72
2022/06/08 00:02:37;;;;;;;6.80;4.28;;;;;;;;;;5053067;28;20045;-64
2022/06/08 00:05:03;;;;;;;7.97;5.03;;;;;;;;;;5053500;28;20033;-64
2022/06/08 00:07:29;;;;;;;6.38;3.90;;;;;;;;;;5053347;28;20033;-64
2022/06/08 00:09:55;;;;;;;5.55;3.67;;;;;;;;;;5052995;28;20067;-67
2022/06/08 00:12:21;;;;;;;6.80;4.18;;;;;;;;;;5052504;28;20021;-66
2022/06/08 00:14:47;;;;;;;6.20;4.40;;;;;;;;;;5052390;28;20033;-67
2022/06/08 00:17:13;;;;;;;17.52;9.57;;;;;;;;;;5060822;28;20031;-65
2022/06/08 00:19:39;;;;;;;12.27;7.28;;;;;;;;;;5072772;28;20112;-66
2022/06/08 00:22:05;;;;;;;11.75;7.88;;;;;;;;;;5072708;28;20119;-66
2022/06/08 00:24:32;;;;;;;9.82;5.47;;;;;;;;;;5070732;28;20036;-73
2022/06/08 00:26:58;;;;;;;6.85;5.13;;;;;;;;;;5071329;28;20095;-67
2022/06/08 00:29:24;;;;;;;6.55;5.90;;;;;;;;;;5071704;28;20036;-69
2022/06/08 00:31:52;;;;;;;7.20;5.70;;;;;;;;;;5072695;28;20042;-73
2022/06/08 00:34:20;;;;;;;6.60;5.90;;;;;;;;;;5072265;28;20055;-70
2022/06/08 00:36:46;;;;;;;10.10;6.88;;;;;;;;;;5066353;28;20091;-72
2022/06/08 00:39:12;;;;;;;10.43;7.03;;;;;;;;;;5051029;28;20037;-67
2022/06/08 00:41:40;;;;;;;12.80;6.90;;;;;;;;;;5052535;28;20384;-68
2022/06/08 00:44:12;;;;;;;7.22;6.35;;;;;;;;;;5068349;28;20396;-70
2022/06/08 00:46:39;;;;;;;9.30;5.82;;;;;;;;;;5067777;28;20462;-73
2022/06/08 00:49:25;;;;;;;7.65;6.18;;;;;;;;;;5067944;28;20479;-66
2022/06/08 00:51:51;;;;;;;9.30;6.53;;;;;;;;;;5067972;28;20037;-65
2022/06/08 00:54:25;;;;;;;9.10;5.95;;;;;;;;;;5052166;28;20368;-66
2022/06/08 00:56:58;;;;;;;10.82;6.20;;;;;;;;;;5051111;28;20390;-66
2022/06/08 00:59:24;;;;;;;8.35;6.03;;;;;;;;;;5052234;28;20480;-68
2022/06/08 01:01:50;;;;;;;9.25;5.25;;;;;;;;;;5067570;28;20044;-66
2022/06/08 01:04:18;;;;;;;6.72;5.75;;;;;;;;;;5067662;28;20167;-68
2022/06/08 01:06:59;;;;;;;8.57;5.72;;;;;;;;;;5067560;28;20029;-67
2022/06/08 01:09:36;;;;;;;7.65;5.88;;;;;;;;;;5067739;28;20102;-63
2022/06/08 01:12:12;;;;;;;6.28;5.40;;;;;;;;;;5067317;28;20075;-71
2022/06/08 01:14:43;;;;;;;6.55;5.07;;;;;;;;;;5067171;28;20037;-63
2022/06/08 01:17:19;;;;;;;6.38;5.10;;;;;;;;;;5050399;28;20114;-65
2022/06/08 01:19:49;;;;;;;5.40;4.90;;;;;;;;;;5067074;28;20373;-63
2022/06/08 01:22:19;;;;;;;7.88;4.20;;;;;;;;;;5067795;28;20033;-67
2022/06/08 01:24:52;;;;;;;4.95;4.45;;;;;;;;;;5087684;28;20043;-64
2022/06/08 01:27:25;;;;;;;9.13;5.20;;;;;;;;;;5087613;28;20036;-65
2022/06/08 01:30:14;;;;;;;7.55;5.15;;;;;;;;;;5087774;28;20039;-65
2022/06/08 01:33:07;;;;;;;7.32;4.53;;;;;;;;;;5070753;28;20050;-68
2022/06/08 01:35:57;;;;;;;6.90;4.05;;;;;;;;;;5070830;28;20036;-66
2022/06/08 01:39:07;;;;;;;9.55;4.63;;;;;;;;;;5070004;28;20031;-68
2022/06/08 01:42:12;;;;;;;6.70;4.35;;;;;;;;;;5070724;28;20036;-66
2022/06/08 01:48:08;;;;;;;8.05;5.10;;;;;;;;;;5071493;28;20032;-69
2022/06/08 01:50:54;;;;;;;6.15;5.15;;;;;;;;;;5070542;28;20446;-65
2022/06/08 01:54:04;;;;;;;5.65;4.65;;;;;;;;;;5071515;28;20116;-68
2022/06/08 01:56:49;;;;;;;5.93;4.70;;;;;;;;;;5049255;28;20537;-69
2022/06/08 01:59:15;;;;;;;4.88;4.20;;;;;;;;;;5032871;28;20416;-70
2022/06/08 02:01:49;;;;;;;6.50;4.55;;;;;;;;;;5055399;28;20082;-70
2022/06/08 02:04:35;;;;;;;5.75;4.20;;;;;;;;;;5086740;28;20029;-68
2022/06/08 02:07:14;;;;;;;7.10;4.63;;;;;;;;;;5071120;28;20099;-67
2022/06/08 02:09:51;;;;;;;7.68;4.78;;;;;;;;;;5070023;28;20036;-66
2022/06/08 02:12:20;;;;;;;10.68;6.25;;;;;;;;;;5086722;28;20029;-67
2022/06/08 02:15:04;;;;;;;6.18;4.82;;;;;;;;;;5070139;28;20383;-67
2022/06/08 02:17:47;;;;;;;6.50;4.65;;;;;;;;;;5070179;28;20045;-65
2022/06/08 02:20:17;;;;;;;8.35;4.95;;;;;;;;;;5069767;28;20054;-73
2022/06/08 02:22:50;;;;;;;9.77;5.35;;;;;;;;;;5069809;28;20032;-66
2022/06/08 02:25:25;;;;;;;7.38;4.78;;;;;;;;;;5071351;28;20120;-68
2022/06/08 02:28:39;;;;;;;5.88;4.88;;;;;;;;;;5086837;28;20044;-65
2022/06/08 02:31:30;;;;;;;7.95;5.05;;;;;;;;;;5025753;28;20093;-66
2022/06/08 02:37:19;;;;;;;12.82;5.03;;;;;;;;;;5051316;28;20106;-67
2022/06/08 02:40:11;;;;;;;7.80;5.00;;;;;;;;;;5066175;28;20029;-66
2022/06/08 02:42:44;;;;;;;5.90;4.50;;;;;;;;;;5049480;28;20124;-70
2022/06/08 02:45:18;;;;;;;6.45;4.50;;;;;;;;;;5066135;28;20033;-66
2022/06/08 02:47:47;;;;;;;6.38;4.78;;;;;;;;;;5066772;28;20091;-66
2022/06/08 02:50:18;;;;;;;7.95;5.00;;;;;;;;;;5069918;28;20025;-67
2022/06/08 02:52:48;;;;;;;9.45;5.00;;;;;;;;;;5069477;28;20029;-65
2022/06/08 02:55:28;;;;;;;9.93;4.40;;;;;;;;;;5052954;28;20021;-66
2022/06/08 02:58:06;;;;;;;5.15;4.18;;;;;;;;;;5069685;28;20064;-71
2022/06/08 03:01:00;;;;;;;5.47;3.92;;;;;;;;;;5069969;28;20036;-64
2022/06/08 03:03:56;;;;;;;6.80;4.22;;;;;;;;;;5067040;28;20045;-66
2022/06/08 03:06:26;;;;;;;5.78;3.78;;;;;;;;;;5069604;28;20032;-70
2022/06/08 03:08:59;;;;;;;6.00;4.47;;;;;;;;;;5069863;28;20491;-65
2022/06/08 03:11:33;;;;;;;14.73;6.05;;;;;;;;;;5069947;28;20037;-69
2022/06/08 03:14:01;;;;;;;;;;;;;;;;;;5069977;28;20091;-65
2022/06/08 03:16:34;;;;;;;13.18;6.10;;;;;;;;;;5052462;28;20334;-69
2022/06/08 03:19:04;;;;;;;10.73;5.00;;;;;;;;;;5069786;28;20095;-66
2022/06/08 03:21:33;;;;;;;8.02;4.72;;;;;;;;;;5052849;28;20049;-68
2022/06/08 03:23:59;;;;;;;6.78;4.45;;;;;;;;;;5069541;28;20037;-71
2022/06/08 03:26:27;;;;;;;7.60;4.93;;;;;;;;;;5069325;28;20033;-68
2022/06/08 03:28:53;;;;;;;5.03;4.07;;;;;;;;;;5069339;28;20035;-70
2022/06/08 03:31:20;;;;;;;5.05;3.95;;;;;;;;;;5069068;28;20048;-65
2022/06/08 03:33:46;;;;;;;14.65;4.63;;;;;;;;;;5069388;28;20109;-70
2022/06/08 03:36:12;;;;;;;5.85;4.57;;;;;;;;;;5069131;28;20084;-69
2022/06/08 03:38:42;;;;;;;9.55;4.18;;;;;;;;;;5068871;28;20025;-66
2022/06/08 03:41:10;;;;;;;4.25;3.85;;;;;;;;;;5069345;28;20082;-67
2022/06/08 03:43:37;;;;;;;10.98;5.00;;;;;;;;;;5068787;28;20539;-67
2022/06/08 03:46:05;;;;;;;9.90;4.10;;;;;;;;;;5053411;28;20033;-66
2022/06/08 03:48:33;;;;;;;6.80;4.72;;;;;;;;;;5068833;28;20372;-68
2022/06/08 03:51:00;;;;;;;7.68;4.13;;;;;;;;;;5053334;28;20025;-66
2022/06/08 03:53:41;;;;;;;7.85;4.53;;;;;;;;;;5053179;28;20479;-67
2022/06/08 03:56:09;;;;;;;10.18;4.55;;;;;;;;;;5068487;28;20124;-69
2022/06/08 03:58:35;;;;;;;6.00;3.83;;;;;;;;;;5053187;28;20079;-63
2022/06/08 04:01:08;;;;;;;5.72;3.90;;;;;;;;;;5068067;28;20036;-65
2022/06/08 04:03:34;;;;;;;12.98;5.43;;;;;;;;;;5068543;28;20048;-74
2022/06/08 04:06:00;;;;;;;12.73;4.15;;;;;;;;;;5068346;28;20033;-69
2022/06/08 04:08:32;;;;;;;9.48;3.75;;;;;;;;;;5051496;28;20094;-66
2022/06/08 04:10:58;;;;;;;8.55;3.83;;;;;;;;;;5052656;28;20423;-71
2022/06/08 04:13:24;;;;;;;7.63;3.90;;;;;;;;;;5067564;28;20017;-68
2022/06/08 04:15:55;;;;;;;9.02;4.00;;;;;;;;;;5071880;28;20040;-69
2022/06/08 04:18:25;;;;;;;12.10;4.40;;;;;;;;;;5071390;28;20040;-73
2022/06/08 04:20:59;;;;;;;8.30;3.95;;;;;;;;;;5071593;28;20056;-66
2022/06/08 04:23:34;;;;;;;4.68;3.20;;;;;;;;;;5088309;28;20044;-66
2022/06/08 04:26:01;;;;;;;6.60;3.10;;;;;;;;;;5071041;28;20036;-65
2022/06/08 04:28:28;;;;;;;8.75;3.30;;;;;;;;;;5070812;28;20040;-71
2022/06/08 04:30:59;;;;;;;9.27;3.67;;;;;;;;;;5071237;28;20032;-65
2022/06/08 04:33:26;;;;;;;6.00;3.30;;;;;;;;;;5070889;28;20028;-71
2022/06/08 04:35:53;;;;;;;5.05;3.17;;;;;;;;;;5070414;28;20126;-71
2022/06/08 04:38:20;;;;;;;4.03;2.83;;;;;;;;;;5070598;28;20064;-70
2022/06/08 04:40:48;;;;;;;5.45;2.90;;;;;;;;;;5071057;28;20029;-68
2022/06/08 04:43:15;;;;;;;8.95;4.10;;;;;;;;;;5084893;28;20063;-70
2022/06/08 04:45:42;;;;;;;5.90;3.30;;;;;;;;;;5090505;28;20037;-65
2022/06/08 04:48:10;;;;;;;5.80;3.35;;;;;;;;;;5091027;28;20028;-66
2022/06/08 04:50:37;;;;;;;9.70;3.28;;;;;;;;;;5091962;28;20020;-65
2022/06/08 04:53:03;;;;;;;5.35;2.85;;;;;;;;;;5092233;28;20043;-69
2022/06/08 04:55:31;;;;;;;6.05;2.97;;;;;;;;;;5091993;28;20032;-64
2022/06/08 04:57:58;;;;;;;8.77;3.67;;;;;;;;;;5091979;28;20466;-68
2022/06/08 05:00:25;;;;;;;8.18;3.30;;;;;;;;;;5091758;28;20031;-66
2022/06/08 05:02:53;;;;;;;8.43;2.92;;;;;;;;;;5091521;28;20032;-66
2022/06/08 05:05:29;;;;;;;4.78;2.72;;;;;;;;;;5091801;28;20044;-66
2022/06/08 05:07:57;;;;;;;12.05;3.20;;;;;;;;;;5091593;28;20047;-67
2022/06/08 05:10:29;;;;;;;9.30;3.28;;;;;;;;;;5091337;28;20028;-67
2022/06/08 05:12:58;;;;;;;4.28;2.40;;;;;;;;;;5090736;28;20028;-64
2022/06/08 05:15:28;;;;;;;4.20;2.47;;;;;;;;;;5090849;28;20387;-63
2022/06/08 05:17:58;;;;;;;6.03;2.80;;;;;;;;;;5091049;28;20046;-65
2022/06/08 05:20:27;;;;;;;5.32;3.30;;;;;;;;;;5090792;28;20037;-64
2022/06/08 05:22:54;;;;;;;6.25;3.05;;;;;;;;;;5090840;28;20060;-67
2022/06/08 05:25:33;;;;;;;3.40;3.10;;;;;;;;;;5090875;28;20086;-65
2022/06/08 05:28:00;;;;;;;6.22;2.80;;;;;;;;;;5091049;28;20086;-73
2022/06/08 05:30:29;;;;;;;8.13;2.83;;;;;;;;;;5091329;28;20553;-70
2022/06/08 05:32:55;;;;;;;7.32;3.17;;;;;;;;;;5091310;28;20039;-72
2022/06/08 05:35:23;;;;;;;3.47;2.90;;;;;;;;;;5091450;28;20024;-70
2022/06/08 05:37:51;;;;;;;4.38;2.90;;;;;;;;;;5091119;28;20039;-70
2022/06/08 05:40:21;;;;;;;5.22;2.78;;;;;;;;;;5091019;28;20024;-67
2022/06/08 05:42:47;;;;;;;4.45;2.72;;;;;;;;;;5091278;28;20130;-67
2022/06/08 05:45:21;;;;;;;4.78;2.20;;;;;;;;;;5090687;28;20408;-70
2022/06/08 05:47:49;;;;;;;6.95;2.50;;;;;;;;;;5087419;28;20036;-74
2022/06/08 05:50:16;;;;;;;2.97;2.40;;;;;;;;;;5073891;28;20111;-71
2022/06/08 05:52:42;;;;;;;4.28;2.30;;;;;;;;;;5090715;28;20482;-74
2022/06/08 05:55:11;;;;;;;5.18;2.60;;;;;;;;;;5090349;28;20138;-68
2022/06/08 05:57:37;;;;;;;5.40;3.13;;;;;;;;;;5091895;28;20086;-69
2022/06/08 06:00:07;;;;;;;8.68;3.85;;;;;;;;;;5090853;28;20035;-72
2022/06/08 06:02:40;;;;;;;6.38;2.88;;;;;;;;;;5084876;28;20043;-69
2022/06/08 06:05:07;;;;;;;4.55;2.80;;;;;;;;;;5092831;28;20036;-70
2022/06/08 06:07:34;;;;;;;6.22;2.60;;;;;;;;;;5073807;28;20149;-71
2022/06/08 06:10:31;;;;;;;3.38;2.63;;;;;;;;;;5063728;28;20117;-73
2022/06/08 06:12:59;;;;;;;5.00;2.70;;;;;;;;;;5086729;28;20035;-74
2022/06/08 06:15:37;;;;;;;5.22;2.80;;;;;;;;;;5070674;28;20043;-74
2022/06/08 06:18:08;;;;;;;5.18;2.92;;;;;;;;;;5070567;28;20044;-68
2022/06/08 06:20:36;;;;;;;6.28;2.90;;;;;;;;;;5106118;28;20087;-72
2022/06/08 06:23:10;;;;;;;5.72;2.60;;;;;;;;;;5090393;28;20086;-72
2022/06/08 06:26:06;;;;;;;6.30;2.67;;;;;;;;;;5063230;28;20047;-75
2022/06/08 06:28:46;;;;;;;5.88;2.83;;;;;;;;;;5072854;28;20075;-75
2022/06/08 06:31:47;;;;;;;4.15;2.30;;;;;;;;;;5073258;28;20475;-75
2022/06/08 06:34:19;;;;;;;6.13;3.25;;;;;;;;;;5070072;28;20048;-70
2022/06/08 06:36:46;;;;;;;4.25;2.65;;;;;;;;;;5073147;28;20487;-70
2022/06/08 06:39:13;;;;;;;5.57;2.67;;;;;;;;;;5072673;28;20475;-73
2022/06/08 06:41:43;;;;;;;4.82;2.47;;;;;;;;;;5056727;28;20479;-70
2022/06/08 06:44:10;;;;;;;4.45;2.58;;;;;;;;;;5073766;28;20036;-69
2022/06/08 06:46:57;;;;;;;4.55;2.80;;;;;;;;;;5073426;28;20056;-67
2022/06/08 06:49:40;;;;;;;5.50;2.70;;;;;;;;;;5072445;28;20040;-74
2022/06/08 06:52:10;;;;;;;4.53;2.42;;;;;;;;;;5072244;28;20064;-72
2022/06/08 06:54:36;;;;;;;2.92;2.63;;;;;;;;;;5074865;28;20498;-72
2022/06/08 06:57:03;;;;;;;5.60;2.58;;;;;;;;;;5081147;28;20032;-71
2022/06/08 06:59:30;;;;;;;5.63;2.55;;;;;;;;;;5083770;28;20034;-73
2022/06/08 07:01:57;;;;;;;7.13;2.70;;;;;;;;;;5109070;28;20032;-71
2022/06/08 07:04:24;;;;;;;4.82;2.90;;;;;;;;;;5091977;28;20047;-68
2022/06/08 07:06:53;;;;;;;5.90;2.90;;;;;;;;;;5109299;28;20406;-75
2022/06/08 07:09:19;;;;;;;6.25;2.92;;;;;;;;;;5091709;28;20028;-76
2022/06/08 07:11:45;;;;;;;6.15;2.55;;;;;;;;;;5094129;28;20039;-70
2022/06/08 07:14:18;;;;;;;5.90;2.85;;;;;;;;;;5102814;28;20028;-68
2022/06/08 07:16:49;;;;;;;6.53;3.10;;;;;;;;;;5089382;28;20032;-74
2022/06/08 07:19:20;;;;;;;5.07;2.75;;;;;;;;;;5071684;28;20032;-76
2022/06/08 07:21:45;;;;;;;8.02;3.22;;;;;;;;;;5071971;28;20048;-73
2022/06/08 07:24:18;;;;;;;4.82;2.80;;;;;;;;;;5072286;28;20040;-71
2022/06/08 07:26:44;;;;;;;3.85;2.90;;;;;;;;;;5070609;28;20432;-72
2022/06/08 07:29:10;;;;;;;6.10;2.75;;;;;;;;;;5072889;28;20081;-67
2022/06/08 07:31:36;;;;;;;3.80;2.65;;;;;;;;;;5072060;28;20029;-70
2022/06/08 07:34:01;;;;;;;6.07;3.40;;;;;;;;;;5072814;28;20021;-73
2022/06/08 07:36:28;;;;;;;10.30;3.65;;;;;;;;;;5080553;28;20470;-70
2022/06/08 07:38:54;;;;;;;6.78;3.03;;;;;;;;;;5092781;28;20404;-77
2022/06/08 07:41:19;;;;;;;3.67;2.92;;;;;;;;;;5092290;28;20031;-72
2022/06/08 07:43:45;;;;;;;5.90;3.17;;;;;;;;;;5092692;28;20024;-72
2022/06/08 07:46:13;;;;;;;5.30;2.80;;;;;;;;;;5108158;28;20039;-75
2022/06/08 07:51:23;;;;;;;5.03;3.00;;;;;;;;;;5108050;28;20036;-75
2022/06/08 07:53:49;;;;;;;5.13;3.13;;;;;;;;;;5093332;28;20501;-70
2022/06/08 07:56:14;;;;;;;6.07;3.17;;;;;;;;;;5094326;28;20120;-73
2022/06/08 07:58:41;;;;;;;5.28;3.50;;;;;;;;;;5094138;28;20039;-71
2022/06/08 08:01:07;;;;;;;5.97;3.22;;;;;;;;;;5093666;28;20111;-74
2022/06/08 08:03:33;;;;;;;3.58;2.75;;;;;;;;;;5094059;28;20028;-74
2022/06/08 08:06:00;;;;;;;5.85;2.80;;;;;;;;;;5109639;28;20479;-72
2022/06/08 08:08:26;;;;;;;7.18;3.20;;;;;;;;;;5093334;28;20122;-69
2022/06/08 08:10:52;;;;;;;5.05;2.92;;;;;;;;;;5093723;28;20550;-70
2022/06/08 08:13:19;;;;;;;5.25;3.33;;;;;;;;;;5093817;28;20024;-72
2022/06/08 08:15:45;;;;;;;7.05;3.10;;;;;;;;;;5093526;28;20494;-69
2022/06/08 08:18:12;;;;;;;3.90;3.00;;;;;;;;;;5093716;28;20463;-73
2022/06/08 08:20:39;;;;;;;4.78;2.70;;;;;;;;;;5093382;28;20223;-74
2022/06/08 08:23:05;;;;;;;4.50;3.05;;;;;;;;;;5092887;28;20473;-72
2022/06/08 08:25:31;;;;;;;5.95;2.92;;;;;;;;;;5093278;28;20043;-71
2022/06/08 08:27:58;;;;;;;5.93;2.90;;;;;;;;;;5108500;28;20076;-76
2022/06/08 08:30:32;;;;;;;5.57;3.40;;;;;;;;;;5093389;28;20043;-75
2022/06/08 08:32:58;;;;;;;5.40;3.10;;;;;;;;;;5093121;28;20028;-68
2022/06/08 08:35:24;;;;;;;10.48;5.65;;;;;;;;;;5095550;28;20027;-68
2022/06/08 08:37:53;;;;;;;4.68;3.00;;;;;;;;;;5097701;28;20482;-69
2022/06/08 08:40:22;;;;;;;4.75;2.97;;;;;;;;;;5093254;28;20020;-68
2022/06/08 08:42:48;;;;;;;5.18;3.22;;;;;;;;;;5093364;28;20035;-69
2022/06/08 08:45:15;;;;;;;8.25;3.45;;;;;;;;;;5093122;28;20390;-68
2022/06/08 08:48:09;;;;;;;6.35;3.00;;;;;;;;;;5092905;28;20044;-69
2022/06/08 08:50:44;;;;;;;5.28;3.38;;;;;;;;;;5093001;28;20036;-74
2022/06/08 08:53:32;;;;;;;9.02;3.47;;;;;;;;;;5092956;28;20237;-75
2022/06/08 08:56:03;;;;;;;7.35;3.25;;;;;;;;;;5092075;28;20028;-76
2022/06/08 08:58:34;;;;;;;7.93;3.40;;;;;;;;;;5093071;28;20491;-76
2022/06/08 09:01:24;;;;;;;7.28;3.00;;;;;;;;;;5093222;28;20077;-71
2022/06/08 09:04:15;;;;;;;5.70;3.20;;;;;;;;;;5093026;28;20093;-75
2022/06/08 09:06:41;;;;;;;3.88;3.00;;;;;;;;;;5085822;28;20076;-73
2022/06/08 09:09:18;;;;;;;7.28;3.40;;;;;;;;;;5092977;28;20117;-75
2022/06/08 09:11:45;;;;;;;5.97;3.47;;;;;;;;;;5092866;28;20028;-76
2022/06/08 09:14:22;;;;;;;9.85;3.40;;;;;;;;;;5092923;28;20162;-71
2022/06/08 09:16:51;;;;;;;5.63;3.22;;;;;;;;;;5092777;28;20086;-77
2022/06/08 09:19:30;;;;;;;5.63;3.55;;;;;;;;;;5092640;28;20028;-73
2022/06/08 09:22:02;;;;;;;5.85;3.60;;;;;;;;;;5092105;28;20040;-73
2022/06/08 09:24:34;;;;;;;9.15;3.85;;;;;;;;;;5088543;28;20078;-74
2022/06/08 09:27:22;;;;;;;7.63;3.75;;;;;;;;;;5091155;28;20036;-75
2022/06/08 09:30:10;;;;;;;8.73;3.60;;;;;;;;;;5083608;28;20050;-70
2022/06/08 09:32:53;;;;;;;6.53;4.05;;;;;;;;;;5103354;28;20128;-74
2022/06/08 09:35:26;;;;;;;10.07;3.67;;;;;;;;;;5088169;28;20457;-76
2022/06/08 09:37:55;;;;;;;7.57;3.78;;;;;;;;;;5089782;28;20035;-71
2022/06/08 09:40:40;;;;;;;7.70;3.78;;;;;;;;;;5091133;28;20031;-75
2022/06/08 09:43:27;;;;;;;7.93;4.10;;;;;;;;;;5091046;28;20028;-69
2022/06/08 09:46:08;;;;;;;6.40;3.78;;;;;;;;;;5091583;28;20077;-72
2022/06/08 09:51:54;;;;;;;6.72;3.63;;;;;;;;;;5087687;28;20036;-70
2022/06/08 09:54:43;;;;;;;8.45;3.90;;;;;;;;;;5059199;28;20051;-75
2022/06/08 09:57:33;;;;;;;6.20;3.63;;;;;;;;;;5081977;28;20032;-74
2022/06/08 10:00:18;;;;;;;6.78;3.60;;;;;;;;;;5089928;28;20039;-74
2022/06/08 10:03:25;;;;;;;6.60;3.70;;;;;;;;;;5094979;28;20043;-72
2022/06/08 10:05:59;;;;;;;7.10;3.58;;;;;;;;;;5094015;28;20410;-70
2022/06/08 10:08:31;;;;;;;5.72;3.30;;;;;;;;;;5094603;28;20047;-73
2022/06/08 10:11:34;;;;;;;7.00;3.83;;;;;;;;;;5094685;28;20040;-67
2022/06/08 10:14:49;;;;;;;6.05;3.10;;;;;;;;;;5089342;28;20043;-71
2022/06/08 10:17:20;;;;;;;6.07;3.47;;;;;;;;;;5051314;28;20132;-74
2022/06/08 10:19:56;;;;;;;10.18;3.95;;;;;;;;;;5034313;28;20556;-74
2022/06/08 10:22:27;;;;;;;4.40;3.22;;;;;;;;;;5079332;28;20498;-75
2022/06/08 10:25:03;;;;;;;4.35;3.00;;;;;;;;;;5093501;28;20069;-70
2022/06/08 10:27:43;;;;;;;9.32;3.45;;;;;;;;;;5088811;28;20056;-72
2022/06/08 10:30:18;;;;;;;6.25;3.83;;;;;;;;;;5095019;28;20040;-75
2022/06/08 10:33:24;;;;;;;20.00;4.10;;;;;;;;;;5093585;28;20028;-77
2022/06/08 10:35:55;;;;;;;6.35;3.05;;;;;;;;;;5032724;28;20040;-76
2022/06/08 10:38:27;;;;;;;7.05;3.25;;;;;;;;;;5085829;28;20078;-73
2022/06/08 10:41:00;;;;;;;5.73;3.10;;;;;;;;;;5091925;28;20036;-71
2022/06/08 10:43:32;;;;;;;7.97;3.40;;;;;;;;;;5093602;28;20035;-75
2022/06/08 10:46:01;;;;;;;6.47;3.42;;;;;;;;;;5094351;28;20032;-72
2022/06/08 10:48:34;;;;;;;5.75;3.40;;;;;;;;;;5094491;28;20028;-76
2022/06/08 10:51:09;;;;;;;5.78;3.55;;;;;;;;;;5093990;28;20457;-77
2022/06/08 10:56:34;;;;;;;7.47;3.42;;;;;;;;;;5093776;28;20040;-70
2022/06/08 10:59:03;;;;;;;8.43;3.53;;;;;;;;;;5093902;28;20421;-70
2022/06/08 11:01:35;;;;;;;8.30;3.60;;;;;;;;;;5092830;28;20508;-74
2022/06/08 11:04:07;;;;;;;4.95;3.30;;;;;;;;;;5094118;28;20036;-77
2022/06/08 11:06:55;;;;;;;7.10;3.60;;;;;;;;;;5093634;28;20028;-69
2022/06/08 11:09:36;;;;;;;9.07;3.58;;;;;;;;;;5082563;28;20115;-76
2022/06/08 11:12:13;;;;;;;11.07;5.78;;;;;;;;;;5093781;28;20123;-77
2022/06/08 11:14:47;;;;;;;5.75;3.70;;;;;;;;;;5095128;28;20085;-70
2022/06/08 11:17:29;;;;;;;7.47;4.60;;;;;;;;;;5095057;28;20028;-74
2022/06/08 11:20:13;;;;;;;6.88;3.40;;;;;;;;;;5094759;28;20144;-68
2022/06/08 11:22:45;;;;;;;6.80;3.33;;;;;;;;;;5094867;28;20111;-70
2022/06/08 11:25:23;;;;;;;8.50;3.10;;;;;;;;;;5094749;28;20067;-71
2022/06/08 11:28:24;;;;;;;10.00;3.58;;;;;;;;;;5094962;28;20035;-69
2022/06/08 11:30:53;;;;;;;6.32;3.08;;;;;;;;;;5094468;28;20035;-70
2022/06/08 11:33:20;;;;;;;6.30;3.00;;;;;;;;;;5094401;28;20028;-74
2022/06/08 11:36:06;;;;;;;5.30;3.20;;;;;;;;;;5094703;28;20032;-72
2022/06/08 11:38:41;;;;;;;7.18;3.60;;;;;;;;;;5094231;28;20029;-74
2022/06/08 11:41:36;;;;;;;6.53;3.33;;;;;;;;;;5094416;28;20036;-74
2022/06/08 11:44:16;;;;;;;7.82;3.45;;;;;;;;;;5094309;28;20038;-71
2022/06/08 11:46:53;;;;;;;10.25;3.60;;;;;;;;;;5094505;28;20039;-68
2022/06/08 11:49:27;;;;;;;15.82;3.72;;;;;;;;;;5094200;28;20640;-67
2022/06/08 11:51:53;;;;;;;7.60;3.30;;;;;;;;;;5094326;28;20048;-69
2022/06/08 11:54:26;;;;;;;6.78;3.38;;;;;;;;;;5092945;28;20027;-69
2022/06/08 11:57:11;;;;;;;7.57;3.20;;;;;;;;;;5094039;28;20035;-71
2022/06/08 11:59:40;;;;;;;6.75;2.88;;;;;;;;;;5094172;28;20035;-71
2022/06/08 12:02:36;;;;;;;5.38;2.78;;;;;;;;;;5093792;28;20115;-69
2022/06/08 12:05:04;;;;;;;6.57;2.80;;;;;;;;;;5088895;28;20044;-70
2022/06/08 12:07:56;;;;;;;4.57;2.72;;;;;;;;;;5093944;28;20414;-73
2022/06/08 12:10:26;;;;;;;7.03;2.88;;;;;;;;;;5092593;28;20123;-69
2022/06/08 12:12:54;;;;;;;4.90;2.80;;;;;;;;;;5094049;28;20032;-74
2022/06/08 12:15:30;;;;;;;3.85;2.40;;;;;;;;;;5094095;28;20020;-70
2022/06/08 12:18:10;;;;;;;7.28;2.47;;;;;;;;;;5094334;28;20085;-77
2022/06/08 12:20:39;;;;;;;5.85;2.63;;;;;;;;;;5092519;28;20483;-73
2022/06/08 12:23:06;;;;;;;5.25;2.70;;;;;;;;;;5093650;28;20032;-75
2022/06/08 12:25:32;;;;;;;4.50;2.88;;;;;;;;;;5093813;28;20032;-77
2022/06/08 12:28:00;;;;;;;6.00;2.80;;;;;;;;;;5093496;28;20108;-75
2022/06/08 12:30:32;;;;;;;7.22;2.72;;;;;;;;;;5093780;28;20032;-76
2022/06/08 12:33:16;;;;;;;4.78;2.63;;;;;;;;;;5093543;28;20471;-72
2022/06/08 12:35:56;;;;;;;5.78;2.90;;;;;;;;;;5093725;28;20036;-73
2022/06/08 12:38:28;;;;;;;4.40;2.80;;;;;;;;;;5093702;28;20032;-74
2022/06/08 12:41:11;;;;;;;4.47;2.70;;;;;;;;;;5093633;28;20039;-72
2022/06/08 12:43:47;;;;;;;6.40;2.90;;;;;;;;;;5093766;28;20032;-73
2022/06/08 12:46:13;;;;;;;5.55;3.03;;;;;;;;;;5093690;28;20499;-73
2022/06/08 12:49:06;;;;;;;8.25;3.20;;;;;;;;;;5093658;28;20485;-72
2022/06/08 12:51:38;;;;;;;5.28;2.85;;;;;;;;;;5085060;28;20040;-73
2022/06/08 12:54:11;;;;;;;4.67;2.40;;;;;;;;;;5093258;28;20036;-72
2022/06/08 12:56:38;;;;;;;5.82;2.40;;;;;;;;;;5093417;28;20088;-74
2022/06/08 12:59:04;;;;;;;5.75;3.00;;;;;;;;;;5093122;28;20024;-73
2022/06/08 13:01:30;;;;;;;6.93;2.65;;;;;;;;;;5093997;28;20440;-74
2022/06/08 13:03:56;;;;;;;4.05;2.70;;;;;;;;;;5093244;28;20080;-77
2022/06/08 13:06:24;;;;;;;4.72;2.63;;;;;;;;;;5092657;28;20067;-77
2022/06/08 13:08:50;;;;;;;4.78;2.97;;;;;;;;;;5092910;28;20035;-73
2022/06/08 13:11:19;;;;;;;7.20;3.03;;;;;;;;;;5093066;28;20086;-72
2022/06/08 13:13:47;;;;;;;4.53;2.72;;;;;;;;;;5093145;28;20089;-73
2022/06/08 13:16:17;;;;;;;4.35;2.60;;;;;;;;;;5092962;28;20543;-72
2022/06/08 13:18:43;;;;;;;4.32;2.50;;;;;;;;;;5092738;28;20024;-71
2022/06/08 13:21:11;;;;;;;6.90;2.63;;;;;;;;;;5092452;28;20047;-69
2022/06/08 13:23:38;;;;;;;6.50;3.00;;;;;;;;;;5092739;28;20553;-72
2022/06/08 13:26:13;;;;;;;7.63;2.60;;;;;;;;;;5092537;28;20337;-71
2022/06/08 13:28:40;;;;;;;5.00;2.50;;;;;;;;;;5092275;28;20039;-71
2022/06/08 13:31:09;;;;;;;9.65;2.70;;;;;;;;;;5092615;28;20028;-68
2022/06/08 13:36:39;;;;;;;4.70;2.78;;;;;;;;;;5092707;28;20081;-73
2022/06/08 13:39:08;;;;;;;7.03;2.30;;;;;;;;;;5092556;28;20028;-70
2022/06/08 13:41:36;;;;;;;6.55;2.50;;;;;;;;;;5091987;28;20139;-70
2022/06/08 13:44:05;;;;;;;5.13;2.33;;;;;;;;;;5092392;28;20032;-73
2022/06/08 13:46:33;;;;;;;8.70;2.80;;;;;;;;;;5092625;28;20161;-70
2022/06/08 13:49:02;;;;;;;5.78;2.85;;;;;;;;;;5092281;28;20047;-70
2022/06/08 13:51:29;;;;;;;3.45;2.35;;;;;;;;;;5092631;28;20024;-74
2022/06/08 13:53:55;;;;;;;7.90;2.50;;;;;;;;;;5092707;28;20036;-73
2022/06/08 13:56:23;;;;;;;7.18;2.60;;;;;;;;;;5092503;28;20398;-73
2022/06/08 13:58:50;;;;;;;5.88;2.80;;;;;;;;;;5092676;28;20579;-74
2022/06/08 14:01:31;;;;;;;8.20;2.70;;;;;;;;;;5092294;28;20026;-71
2022/06/08 14:03:59;;;;;;;8.20;2.70;;;;;;;;;;5092334;28;20032;-72
2022/06/08 14:14:52;;;;;;;5.15;2.53;;;;;;;;;;5090759;28;20073;-71
2022/06/08 14:17:20;;;;;;;7.18;2.80;;;;;;;;;;5090725;28;20102;-72
2022/06/08 14:19:53;;;;;;;5.47;2.70;;;;;;;;;;5090908;28;20189;-72
2022/06/08 14:22:23;;;;;;;6.03;2.58;;;;;;;;;;5090998;28;20040;-71
2022/06/08 14:24:52;;;;;;;5.90;2.65;;;;;;;;;;5091051;28;20040;-72
2022/06/08 14:27:19;;;;;;;5.78;2.80;;;;;;;;;;5089988;28;20038;-72
2022/06/08 14:29:47;;;;;;;8.45;2.88;;;;;;;;;;5089831;28;20478;-72
2022/06/08 14:32:26;;;;;;;7.95;2.85;;;;;;;;;;5090407;28;20033;-71
2022/06/08 14:34:53;;;;;;;4.60;2.50;;;;;;;;;;5088482;28;20388;-71
2022/06/08 14:37:21;;;;;;;3.70;2.67;;;;;;;;;;5090913;28;20035;-71
2022/06/08 14:39:47;;;;;;;4.53;2.90;;;;;;;;;;5089450;28;20081;-71
2022/06/08 14:42:14;;;;;;;5.18;2.90;;;;;;;;;;5090521;28;20028;-71
2022/06/08 14:44:41;;;;;;;8.73;2.80;;;;;;;;;;5093218;28;20032;-72
2022/06/08 14:47:28;;;;;;;3.83;2.50;;;;;;;;;;5094480;28;20028;-72
2022/06/08 14:49:56;;;;;;;5.05;3.22;;;;;;;;;;5088818;28;20120;-73
2022/06/08 14:52:24;;;;;;;7.57;2.83;;;;;;;;;;5072154;28;20115;-70
2022/06/08 14:54:51;;;;;;;8.27;2.83;;;;;;;;;;5076664;28;20040;-71
2022/06/08 14:57:35;;;;;;;6.85;2.95;;;;;;;;;;5093698;28;20103;-70
2022/06/08 15:00:13;;;;;;;5.85;2.30;;;;;;;;;;5093014;28;20032;-71
2022/06/08 15:02:39;;;;;;;6.45;3.00;;;;;;;;;;5094464;28;20040;-70
2022/06/08 15:05:07;;;;;;;9.43;6.78;;;;;;;;;;5095288;28;20024;-70
2022/06/08 15:07:34;;;;;;;9.68;7.38;;;;;;;;;;5094379;28;20062;-73
2022/06/08 15:10:03;;;;;;;8.63;3.85;;;;;;;;;;5095517;28;20031;-71
2022/06/08 15:12:30;;;;;;;8.38;4.75;;;;;;;;;;5095348;28;20036;-71
2022/06/08 15:15:05;;;;;;;15.25;8.15;;;;;;;;;;5095558;28;20351;-71
2022/06/08 15:17:34;;;;;;;17.02;7.97;;;;;;;;;;5095433;28;20133;-71
2022/06/08 15:20:18;;;;;;;14.93;8.45;;;;;;;;;;5094892;28;20021;-71
2022/06/08 15:22:48;;;;;;;16.15;5.78;;;;;;;;;;5095143;28;20028;-73
2022/06/08 15:25:15;;;;;;;10.98;5.78;;;;;;;;;;5099010;28;20028;-70
2022/06/08 15:27:48;;;;;;;10.63;4.50;;;;;;;;;;5095222;28;20077;-70
2022/06/08 15:30:19;;;;;;;;;;;;;;;;;;5095878;28;20028;-71
2022/06/08 15:32:45;;;;;;;6.13;3.60;;;;;;;;;;5095317;28;19916;-69
2022/06/08 15:35:15;;;;;;;5.93;3.40;;;;;;;;;;5095182;28;20024;-71
2022/06/08 15:37:42;;;;;;;8.45;3.80;;;;;;;;;;5094870;28;20051;-70
2022/06/08 15:40:13;;;;;;;7.30;3.80;;;;;;;;;;5095210;28;20125;-70
2022/06/08 15:42:39;;;;;;;5.43;3.20;;;;;;;;;;5094996;28;20032;-69